sensor_id;sensor_type;location;lat;lon;timestamp;temperature;humidity
72772;SHT30;60894;42.544;1.516;2022-11-20T00:00:57;3.89;44.77
72772;SHT30;60894;42.544;1.516;2022-11-20T00:03:24;3.93;44.20
72772;SHT30;60894;42.544;1.516;2022-11-20T00:05:51;3.79;44.01
72772;SHT30;60894;42.544;1.516;2022-11-20T00:08:18;3.68;45.98
72772;SHT30;60894;42.544;1.516;2022-11-20T00:10:44;3.55;47.00
72772;SHT30;60894;42.544;1.516;2022-11-20T00:13:12;3.45;46.78
72772;SHT30;60894;42.544;1.516;2022-11-20T00:15:39;3.23;46.71
72772;SHT30;60894;42.544;1.516;2022-11-20T00:18:07;3.17;47.69
72772;SHT30;60894;42.544;1.516;2022-11-20T00:20:34;3.17;48.22
72772;SHT30;60894;42.544;1.516;2022-11-20T00:23:01;3.19;48.27
72772;SHT30;60894;42.544;1.516;2022-11-20T00:25:28;3.07;48.20
72772;SHT30;60894;42.544;1.516;2022-11-20T00:27:55;3.03;48.91
72772;SHT30;60894;42.544;1.516;2022-11-20T00:30:22;3.16;48.92
72772;SHT30;60894;42.544;1.516;2022-11-20T00:32:49;3.14;47.88
72772;SHT30;60894;42.544;1.516;2022-11-20T00:35:17;3.13;47.42
72772;SHT30;60894;42.544;1.516;2022-11-20T00:37:46;3.16;48.51
72772;SHT30;60894;42.544;1.516;2022-11-20T00:40:13;3.16;48.12
72772;SHT30;60894;42.544;1.516;2022-11-20T00:42:40;2.99;47.33
72772;SHT30;60894;42.544;1.516;2022-11-20T00:45:08;2.95;48.14
72772;SHT30;60894;42.544;1.516;2022-11-20T00:47:34;2.97;48.96
72772;SHT30;60894;42.544;1.516;2022-11-20T00:50:02;3.00;46.35
72772;SHT30;60894;42.544;1.516;2022-11-20T00:52:30;3.09;45.98
72772;SHT30;60894;42.544;1.516;2022-11-20T00:54:57;3.00;46.92
72772;SHT30;60894;42.544;1.516;2022-11-20T00:57:24;3.00;46.48
72772;SHT30;60894;42.544;1.516;2022-11-20T00:59:51;2.92;45.88
72772;SHT30;60894;42.544;1.516;2022-11-20T01:02:18;2.88;46.53
72772;SHT30;60894;42.544;1.516;2022-11-20T01:04:45;2.78;46.73
72772;SHT30;60894;42.544;1.516;2022-11-20T01:07:12;2.68;47.01
72772;SHT30;60894;42.544;1.516;2022-11-20T01:09:40;2.66;47.00
72772;SHT30;60894;42.544;1.516;2022-11-20T01:12:07;2.59;47.30
72772;SHT30;60894;42.544;1.516;2022-11-20T01:14:35;2.62;48.13
72772;SHT30;60894;42.544;1.516;2022-11-20T01:17:02;2.46;49.56
72772;SHT30;60894;42.544;1.516;2022-11-20T01:19:29;2.38;49.38
72772;SHT30;60894;42.544;1.516;2022-11-20T01:21:56;2.37;50.39
72772;SHT30;60894;42.544;1.516;2022-11-20T01:24:23;2.27;50.39
72772;SHT30;60894;42.544;1.516;2022-11-20T01:26:51;2.21;50.19
72772;SHT30;60894;42.544;1.516;2022-11-20T01:29:20;2.15;50.76
72772;SHT30;60894;42.544;1.516;2022-11-20T01:31:47;2.18;50.23
72772;SHT30;60894;42.544;1.516;2022-11-20T01:34:16;2.14;50.60
72772;SHT30;60894;42.544;1.516;2022-11-20T01:36:47;2.13;51.90
72772;SHT30;60894;42.544;1.516;2022-11-20T01:39:16;2.00;52.41
72772;SHT30;60894;42.544;1.516;2022-11-20T01:41:44;1.99;51.79
72772;SHT30;60894;42.544;1.516;2022-11-20T01:44:52;1.94;51.44
72772;SHT30;60894;42.544;1.516;2022-11-20T01:47:32;1.90;52.67
72772;SHT30;60894;42.544;1.516;2022-11-20T01:50:04;1.81;52.33
72772;SHT30;60894;42.544;1.516;2022-11-20T01:52:34;1.80;51.96
72772;SHT30;60894;42.544;1.516;2022-11-20T01:55:05;1.73;51.74
72772;SHT30;60894;42.544;1.516;2022-11-20T01:57:34;1.59;53.57
72772;SHT30;60894;42.544;1.516;2022-11-20T02:00:06;1.62;54.28
72772;SHT30;60894;42.544;1.516;2022-11-20T02:02:34;1.76;52.84
72772;SHT30;60894;42.544;1.516;2022-11-20T02:05:08;1.46;53.12
72772;SHT30;60894;42.544;1.516;2022-11-20T02:07:36;1.52;53.67
72772;SHT30;60894;42.544;1.516;2022-11-20T02:10:04;1.56;53.93
72772;SHT30;60894;42.544;1.516;2022-11-20T02:12:31;1.55;54.00
72772;SHT30;60894;42.544;1.516;2022-11-20T02:15:18;1.40;54.11
72772;SHT30;60894;42.544;1.516;2022-11-20T02:17:45;1.43;54.55
72772;SHT30;60894;42.544;1.516;2022-11-20T02:20:12;1.22;54.69
72772;SHT30;60894;42.544;1.516;2022-11-20T02:22:45;1.29;54.44
72772;SHT30;60894;42.544;1.516;2022-11-20T02:25:16;1.38;54.02
72772;SHT30;60894;42.544;1.516;2022-11-20T02:27:43;1.32;53.84
72772;SHT30;60894;42.544;1.516;2022-11-20T02:30:11;0.91;54.96
72772;SHT30;60894;42.544;1.516;2022-11-20T02:32:39;0.95;55.19
72772;SHT30;60894;42.544;1.516;2022-11-20T02:35:08;1.14;55.15
72772;SHT30;60894;42.544;1.516;2022-11-20T02:37:37;1.28;55.34
72772;SHT30;60894;42.544;1.516;2022-11-20T02:40:07;1.27;54.81
72772;SHT30;60894;42.544;1.516;2022-11-20T02:42:35;1.38;53.67
72772;SHT30;60894;42.544;1.516;2022-11-20T02:45:03;1.14;54.19
72772;SHT30;60894;42.544;1.516;2022-11-20T02:47:30;1.07;53.46
72772;SHT30;60894;42.544;1.516;2022-11-20T02:49:57;1.05;55.31
72772;SHT30;60894;42.544;1.516;2022-11-20T02:52:24;1.19;53.88
72772;SHT30;60894;42.544;1.516;2022-11-20T02:54:52;1.18;54.01
72772;SHT30;60894;42.544;1.516;2022-11-20T02:57:19;1.05;54.23
72772;SHT30;60894;42.544;1.516;2022-11-20T02:59:47;0.95;54.28
72772;SHT30;60894;42.544;1.516;2022-11-20T03:02:14;0.99;54.85
72772;SHT30;60894;42.544;1.516;2022-11-20T03:04:41;1.08;54.65
72772;SHT30;60894;42.544;1.516;2022-11-20T03:07:08;1.08;54.59
72772;SHT30;60894;42.544;1.516;2022-11-20T03:09:36;1.08;54.22
72772;SHT30;60894;42.544;1.516;2022-11-20T03:12:03;0.70;54.10
72772;SHT30;60894;42.544;1.516;2022-11-20T03:14:30;0.68;54.03
72772;SHT30;60894;42.544;1.516;2022-11-20T03:16:58;0.70;54.88
72772;SHT30;60894;42.544;1.516;2022-11-20T03:19:25;0.74;55.10
72772;SHT30;60894;42.544;1.516;2022-11-20T03:21:52;0.61;54.47
72772;SHT30;60894;42.544;1.516;2022-11-20T03:24:19;0.70;54.52
72772;SHT30;60894;42.544;1.516;2022-11-20T03:26:46;0.68;54.74
72772;SHT30;60894;42.544;1.516;2022-11-20T03:29:13;0.76;54.98
72772;SHT30;60894;42.544;1.516;2022-11-20T03:31:41;0.76;54.46
72772;SHT30;60894;42.544;1.516;2022-11-20T03:34:11;0.78;53.96
72772;SHT30;60894;42.544;1.516;2022-11-20T03:36:38;0.89;53.18
72772;SHT30;60894;42.544;1.516;2022-11-20T03:39:06;0.73;53.95
72772;SHT30;60894;42.544;1.516;2022-11-20T03:41:36;0.71;54.63
72772;SHT30;60894;42.544;1.516;2022-11-20T03:44:06;0.67;55.51
72772;SHT30;60894;42.544;1.516;2022-11-20T03:46:34;0.80;55.22
72772;SHT30;60894;42.544;1.516;2022-11-20T03:49:01;0.89;54.06
72772;SHT30;60894;42.544;1.516;2022-11-20T03:51:30;0.83;53.91
72772;SHT30;60894;42.544;1.516;2022-11-20T03:53:59;0.80;54.40
72772;SHT30;60894;42.544;1.516;2022-11-20T03:56:29;0.76;54.46
72772;SHT30;60894;42.544;1.516;2022-11-20T03:58:57;0.67;55.90
72772;SHT30;60894;42.544;1.516;2022-11-20T04:01:26;0.70;55.39
72772;SHT30;60894;42.544;1.516;2022-11-20T04:03:54;0.67;55.06
72772;SHT30;60894;42.544;1.516;2022-11-20T04:06:22;0.78;54.93
72772;SHT30;60894;42.544;1.516;2022-11-20T04:08:53;0.67;54.90
72772;SHT30;60894;42.544;1.516;2022-11-20T04:11:22;0.63;55.44
72772;SHT30;60894;42.544;1.516;2022-11-20T04:13:51;0.73;55.54
72772;SHT30;60894;42.544;1.516;2022-11-20T04:16:18;0.78;55.02
72772;SHT30;60894;42.544;1.516;2022-11-20T04:18:45;0.92;54.09
72772;SHT30;60894;42.544;1.516;2022-11-20T04:21:12;0.71;54.31
72772;SHT30;60894;42.544;1.516;2022-11-20T04:23:39;0.66;55.23
72772;SHT30;60894;42.544;1.516;2022-11-20T04:26:09;0.50;55.21
72772;SHT30;60894;42.544;1.516;2022-11-20T04:28:37;0.56;55.56
72772;SHT30;60894;42.544;1.516;2022-11-20T04:31:07;0.58;55.88
72772;SHT30;60894;42.544;1.516;2022-11-20T04:33:35;0.49;55.33
72772;SHT30;60894;42.544;1.516;2022-11-20T04:36:03;0.49;55.49
72772;SHT30;60894;42.544;1.516;2022-11-20T04:38:31;0.54;55.04
72772;SHT30;60894;42.544;1.516;2022-11-20T04:40:58;0.60;53.73
72772;SHT30;60894;42.544;1.516;2022-11-20T04:43:27;0.39;52.69
72772;SHT30;60894;42.544;1.516;2022-11-20T04:45:55;0.42;54.27
72772;SHT30;60894;42.544;1.516;2022-11-20T04:48:22;0.45;54.12
72772;SHT30;60894;42.544;1.516;2022-11-20T04:50:50;0.43;54.61
72772;SHT30;60894;42.544;1.516;2022-11-20T04:53:17;0.37;55.40
72772;SHT30;60894;42.544;1.516;2022-11-20T04:55:45;0.33;54.65
72772;SHT30;60894;42.544;1.516;2022-11-20T04:58:12;0.22;54.18
72772;SHT30;60894;42.544;1.516;2022-11-20T05:00:41;0.39;55.30
72772;SHT30;60894;42.544;1.516;2022-11-20T05:03:08;0.20;55.31
72772;SHT30;60894;42.544;1.516;2022-11-20T05:05:35;0.01;55.37
72772;SHT30;60894;42.544;1.516;2022-11-20T05:08:02;-0.06;55.58
72772;SHT30;60894;42.544;1.516;2022-11-20T05:10:29;0.02;56.14
72772;SHT30;60894;42.544;1.516;2022-11-20T05:12:57;0.22;56.51
72772;SHT30;60894;42.544;1.516;2022-11-20T05:15:24;0.19;56.39
72772;SHT30;60894;42.544;1.516;2022-11-20T05:17:53;0.27;55.81
72772;SHT30;60894;42.544;1.516;2022-11-20T05:20:19;0.33;55.85
72772;SHT30;60894;42.544;1.516;2022-11-20T05:22:46;0.10;55.22
72772;SHT30;60894;42.544;1.516;2022-11-20T05:25:14;0.16;55.54
72772;SHT30;60894;42.544;1.516;2022-11-20T05:27:41;0.16;56.64
72772;SHT30;60894;42.544;1.516;2022-11-20T05:30:09;0.25;56.46
72772;SHT30;60894;42.544;1.516;2022-11-20T05:32:36;0.26;56.30
72772;SHT30;60894;42.544;1.516;2022-11-20T05:35:05;0.27;55.21
72772;SHT30;60894;42.544;1.516;2022-11-20T05:37:33;0.37;54.17
72772;SHT30;60894;42.544;1.516;2022-11-20T05:40:00;0.20;55.54
72772;SHT30;60894;42.544;1.516;2022-11-20T05:42:30;0.29;55.17
72772;SHT30;60894;42.544;1.516;2022-11-20T05:44:57;0.30;53.83
72772;SHT30;60894;42.544;1.516;2022-11-20T05:47:24;0.33;54.13
72772;SHT30;60894;42.544;1.516;2022-11-20T05:49:51;0.30;54.01
72772;SHT30;60894;42.544;1.516;2022-11-20T05:52:20;0.33;54.60
72772;SHT30;60894;42.544;1.516;2022-11-20T05:54:47;0.30;54.24
72772;SHT30;60894;42.544;1.516;2022-11-20T05:57:14;0.30;54.71
72772;SHT30;60894;42.544;1.516;2022-11-20T05:59:41;0.09;55.22
72772;SHT30;60894;42.544;1.516;2022-11-20T06:02:08;-0.02;56.33
72772;SHT30;60894;42.544;1.516;2022-11-20T06:04:35;0.02;56.67
72772;SHT30;60894;42.544;1.516;2022-11-20T06:07:04;0.06;56.69
72772;SHT30;60894;42.544;1.516;2022-11-20T06:09:32;0.13;55.85
72772;SHT30;60894;42.544;1.516;2022-11-20T06:11:59;0.30;55.12
72772;SHT30;60894;42.544;1.516;2022-11-20T06:14:26;0.33;55.15
72772;SHT30;60894;42.544;1.516;2022-11-20T06:16:53;0.13;56.23
72772;SHT30;60894;42.544;1.516;2022-11-20T06:19:20;0.06;57.15
72772;SHT30;60894;42.544;1.516;2022-11-20T06:21:47;0.15;57.00
72772;SHT30;60894;42.544;1.516;2022-11-20T06:24:15;0.09;57.28
72772;SHT30;60894;42.544;1.516;2022-11-20T06:26:43;0.09;56.58
72772;SHT30;60894;42.544;1.516;2022-11-20T06:29:11;0.05;56.72
72772;SHT30;60894;42.544;1.516;2022-11-20T06:31:38;0.09;56.98
72772;SHT30;60894;42.544;1.516;2022-11-20T06:34:08;0.06;57.50
72772;SHT30;60894;42.544;1.516;2022-11-20T06:36:35;0.08;57.54
72772;SHT30;60894;42.544;1.516;2022-11-20T06:39:02;0.09;57.21
72772;SHT30;60894;42.544;1.516;2022-11-20T06:41:29;0.12;56.56
72772;SHT30;60894;42.544;1.516;2022-11-20T06:43:58;0.01;56.91
72772;SHT30;60894;42.544;1.516;2022-11-20T06:46:25;0.05;57.43
72772;SHT30;60894;42.544;1.516;2022-11-20T06:48:52;0.08;58.46
72772;SHT30;60894;42.544;1.516;2022-11-20T06:51:19;0.01;57.95
72772;SHT30;60894;42.544;1.516;2022-11-20T06:53:46;0.13;57.05
72772;SHT30;60894;42.544;1.516;2022-11-20T06:56:14;0.22;56.74
72772;SHT30;60894;42.544;1.516;2022-11-20T06:58:41;0.06;57.10
72772;SHT30;60894;42.544;1.516;2022-11-20T07:01:11;0.01;58.56
72772;SHT30;60894;42.544;1.516;2022-11-20T07:03:39;0.02;59.22
72772;SHT30;60894;42.544;1.516;2022-11-20T07:06:06;0.02;57.86
72772;SHT30;60894;42.544;1.516;2022-11-20T07:08:34;0.02;58.25
72772;SHT30;60894;42.544;1.516;2022-11-20T07:11:03;0.13;57.31
72772;SHT30;60894;42.544;1.516;2022-11-20T07:13:30;-0.04;58.35
72772;SHT30;60894;42.544;1.516;2022-11-20T07:15:59;0.03;58.07
72772;SHT30;60894;42.544;1.516;2022-11-20T07:18:29;0.01;58.56
72772;SHT30;60894;42.544;1.516;2022-11-20T07:20:56;0.09;58.35
72772;SHT30;60894;42.544;1.516;2022-11-20T07:23:22;0.10;58.14
72772;SHT30;60894;42.544;1.516;2022-11-20T07:25:49;0.19;58.03
72772;SHT30;60894;42.544;1.516;2022-11-20T07:28:16;0.08;58.74
72772;SHT30;60894;42.544;1.516;2022-11-20T07:30:49;0.09;58.67
72772;SHT30;60894;42.544;1.516;2022-11-20T07:33:16;0.16;58.93
72772;SHT30;60894;42.544;1.516;2022-11-20T07:35:44;0.26;58.27
72772;SHT30;60894;42.544;1.516;2022-11-20T07:38:11;0.17;59.31
72772;SHT30;60894;42.544;1.516;2022-11-20T07:40:38;0.25;59.29
72772;SHT30;60894;42.544;1.516;2022-11-20T07:43:05;0.16;59.19
72772;SHT30;60894;42.544;1.516;2022-11-20T07:45:32;0.13;59.02
72772;SHT30;60894;42.544;1.516;2022-11-20T07:47:59;0.17;58.37
72772;SHT30;60894;42.544;1.516;2022-11-20T07:50:26;0.13;58.54
72772;SHT30;60894;42.544;1.516;2022-11-20T07:53:01;0.29;58.82
72772;SHT30;60894;42.544;1.516;2022-11-20T07:55:29;0.13;58.92
72772;SHT30;60894;42.544;1.516;2022-11-20T07:57:56;0.19;59.28
72772;SHT30;60894;42.544;1.516;2022-11-20T08:00:24;0.19;59.15
72772;SHT30;60894;42.544;1.516;2022-11-20T08:02:51;0.42;58.89
72772;SHT30;60894;42.544;1.516;2022-11-20T08:05:18;0.42;57.49
72772;SHT30;60894;42.544;1.516;2022-11-20T08:07:45;0.37;58.51
72772;SHT30;60894;42.544;1.516;2022-11-20T08:10:15;0.45;59.56
72772;SHT30;60894;42.544;1.516;2022-11-20T08:12:46;0.60;59.18
72772;SHT30;60894;42.544;1.516;2022-11-20T08:15:32;0.73;59.42
72772;SHT30;60894;42.544;1.516;2022-11-20T08:18:00;0.68;57.91
72772;SHT30;60894;42.544;1.516;2022-11-20T08:20:27;0.83;57.85
72772;SHT30;60894;42.544;1.516;2022-11-20T08:22:58;0.95;56.87
72772;SHT30;60894;42.544;1.516;2022-11-20T08:25:27;1.05;55.61
72772;SHT30;60894;42.544;1.516;2022-11-20T08:27:54;1.21;54.74
72772;SHT30;60894;42.544;1.516;2022-11-20T08:30:23;1.32;54.33
72772;SHT30;60894;42.544;1.516;2022-11-20T08:32:50;1.31;54.77
72772;SHT30;60894;42.544;1.516;2022-11-20T08:35:17;1.49;54.27
72772;SHT30;60894;42.544;1.516;2022-11-20T08:37:46;1.67;53.56
72772;SHT30;60894;42.544;1.516;2022-11-20T08:40:13;1.67;53.47
72772;SHT30;60894;42.544;1.516;2022-11-20T08:42:47;1.80;52.85
72772;SHT30;60894;42.544;1.516;2022-11-20T08:45:14;1.94;51.93
72772;SHT30;60894;42.544;1.516;2022-11-20T08:47:42;2.14;52.17
72772;SHT30;60894;42.544;1.516;2022-11-20T08:50:09;2.35;50.53
72772;SHT30;60894;42.544;1.516;2022-11-20T08:52:36;2.65;50.11
72772;SHT30;60894;42.544;1.516;2022-11-20T08:55:05;2.90;49.71
72772;SHT30;60894;42.544;1.516;2022-11-20T08:57:32;3.10;47.79
72772;SHT30;60894;42.544;1.516;2022-11-20T09:00:02;3.37;48.20
72772;SHT30;60894;42.544;1.516;2022-11-20T09:02:30;3.53;47.65
72772;SHT30;60894;42.544;1.516;2022-11-20T09:04:57;3.72;47.60
72772;SHT30;60894;42.544;1.516;2022-11-20T09:07:25;3.95;46.77
72772;SHT30;60894;42.544;1.516;2022-11-20T09:09:52;4.24;47.02
72772;SHT30;60894;42.544;1.516;2022-11-20T09:12:19;4.40;44.71
72772;SHT30;60894;42.544;1.516;2022-11-20T09:14:46;4.28;41.77
72772;SHT30;60894;42.544;1.516;2022-11-20T09:17:14;4.63;42.67
72772;SHT30;60894;42.544;1.516;2022-11-20T09:19:41;4.92;44.10
72772;SHT30;60894;42.544;1.516;2022-11-20T09:22:08;5.15;41.87
72772;SHT30;60894;42.544;1.516;2022-11-20T09:24:35;5.16;39.86
72772;SHT30;60894;42.544;1.516;2022-11-20T09:27:03;5.59;40.15
72772;SHT30;60894;42.544;1.516;2022-11-20T09:29:30;5.93;41.11
72772;SHT30;60894;42.544;1.516;2022-11-20T09:31:57;5.91;39.01
72772;SHT30;60894;42.544;1.516;2022-11-20T09:34:26;6.07;40.61
72772;SHT30;60894;42.544;1.516;2022-11-20T09:36:53;6.16;40.21
72772;SHT30;60894;42.544;1.516;2022-11-20T09:39:20;6.27;39.21
72772;SHT30;60894;42.544;1.516;2022-11-20T09:45:16;6.04;39.86
72772;SHT30;60894;42.544;1.516;2022-11-20T09:47:56;6.14;40.05
72772;SHT30;60894;42.544;1.516;2022-11-20T09:50:31;5.93;38.86
72772;SHT30;60894;42.544;1.516;2022-11-20T09:53:13;5.94;39.81
72772;SHT30;60894;42.544;1.516;2022-11-20T09:55:45;5.89;40.60
72772;SHT30;60894;42.544;1.516;2022-11-20T09:58:18;5.87;39.08
72772;SHT30;60894;42.544;1.516;2022-11-20T10:00:46;5.89;38.95
72772;SHT30;60894;42.544;1.516;2022-11-20T10:03:16;5.97;38.49
72772;SHT30;60894;42.544;1.516;2022-11-20T10:05:49;5.93;37.67
72772;SHT30;60894;42.544;1.516;2022-11-20T10:08:20;6.00;37.54
72772;SHT30;60894;42.544;1.516;2022-11-20T10:10:51;6.20;37.97
72772;SHT30;60894;42.544;1.516;2022-11-20T10:13:34;6.16;38.30
72772;SHT30;60894;42.544;1.516;2022-11-20T10:16:13;6.11;38.13
72772;SHT30;60894;42.544;1.516;2022-11-20T10:18:51;6.21;38.82
72772;SHT30;60894;42.544;1.516;2022-11-20T10:21:29;6.45;37.46
72772;SHT30;60894;42.544;1.516;2022-11-20T10:24:12;6.65;37.19
72772;SHT30;60894;42.544;1.516;2022-11-20T10:26:52;6.86;35.90
72772;SHT30;60894;42.544;1.516;2022-11-20T10:29:23;7.06;37.73
72772;SHT30;60894;42.544;1.516;2022-11-20T10:31:56;7.30;36.88
72772;SHT30;60894;42.544;1.516;2022-11-20T10:34:31;7.93;36.27
72772;SHT30;60894;42.544;1.516;2022-11-20T10:37:05;8.41;34.72
72772;SHT30;60894;42.544;1.516;2022-11-20T10:39:40;8.59;34.86
72772;SHT30;60894;42.544;1.516;2022-11-20T10:42:11;9.02;35.73
72772;SHT30;60894;42.544;1.516;2022-11-20T10:44:43;9.26;35.75
72772;SHT30;60894;42.544;1.516;2022-11-20T10:47:30;9.83;35.06
72772;SHT30;60894;42.544;1.516;2022-11-20T10:50:02;9.91;37.22
72772;SHT30;60894;42.544;1.516;2022-11-20T10:52:37;9.82;33.28
72772;SHT30;60894;42.544;1.516;2022-11-20T10:55:16;9.66;33.55
72772;SHT30;60894;42.544;1.516;2022-11-20T10:57:53;10.22;38.36
72772;SHT30;60894;42.544;1.516;2022-11-20T11:00:22;10.63;33.52
72772;SHT30;60894;42.544;1.516;2022-11-20T11:02:50;10.82;33.25
72772;SHT30;60894;42.544;1.516;2022-11-20T11:05:25;10.28;33.21
72772;SHT30;60894;42.544;1.516;2022-11-20T11:07:56;11.10;33.25
72772;SHT30;60894;42.544;1.516;2022-11-20T11:10:27;11.26;33.77
72772;SHT30;60894;42.544;1.516;2022-11-20T11:12:58;11.17;34.20
72772;SHT30;60894;42.544;1.516;2022-11-20T11:15:27;11.28;34.20
72772;SHT30;60894;42.544;1.516;2022-11-20T11:17:54;11.82;34.32
72772;SHT30;60894;42.544;1.516;2022-11-20T11:20:22;11.94;33.82
72772;SHT30;60894;42.544;1.516;2022-11-20T11:22:51;11.98;34.86
72772;SHT30;60894;42.544;1.516;2022-11-20T11:25:25;12.18;33.92
72772;SHT30;60894;42.544;1.516;2022-11-20T11:27:54;12.52;33.88
72772;SHT30;60894;42.544;1.516;2022-11-20T11:30:23;12.50;34.00
72772;SHT30;60894;42.544;1.516;2022-11-20T11:32:51;12.64;34.30
72772;SHT30;60894;42.544;1.516;2022-11-20T11:35:28;12.68;35.39
72772;SHT30;60894;42.544;1.516;2022-11-20T11:38:05;12.87;34.35
72772;SHT30;60894;42.544;1.516;2022-11-20T11:40:37;13.25;34.41
72772;SHT30;60894;42.544;1.516;2022-11-20T11:43:06;13.75;34.12
72772;SHT30;60894;42.544;1.516;2022-11-20T11:45:54;14.38;33.53
72772;SHT30;60894;42.544;1.516;2022-11-20T11:48:21;14.36;32.29
72772;SHT30;60894;42.544;1.516;2022-11-20T11:50:49;13.97;32.37
72772;SHT30;60894;42.544;1.516;2022-11-20T11:53:18;14.38;32.61
72772;SHT30;60894;42.544;1.516;2022-11-20T11:55:50;14.33;32.24
72772;SHT30;60894;42.544;1.516;2022-11-20T11:58:29;13.83;32.58
72772;SHT30;60894;42.544;1.516;2022-11-20T12:01:04;13.59;33.60
72772;SHT30;60894;42.544;1.516;2022-11-20T12:03:37;13.87;33.60
72772;SHT30;60894;42.544;1.516;2022-11-20T12:06:11;13.87;33.05
72772;SHT30;60894;42.544;1.516;2022-11-20T12:08:44;14.10;32.83
72772;SHT30;60894;42.544;1.516;2022-11-20T12:11:19;13.96;33.41
72772;SHT30;60894;42.544;1.516;2022-11-20T12:13:52;14.05;33.71
72772;SHT30;60894;42.544;1.516;2022-11-20T12:16:20;14.49;32.57
72772;SHT30;60894;42.544;1.516;2022-11-20T12:18:50;14.45;33.07
72772;SHT30;60894;42.544;1.516;2022-11-20T12:21:27;14.34;33.15
72772;SHT30;60894;42.544;1.516;2022-11-20T12:24:06;14.49;33.47
72772;SHT30;60894;42.544;1.516;2022-11-20T12:26:54;14.99;32.85
72772;SHT30;60894;42.544;1.516;2022-11-20T12:29:34;14.34;33.05
72772;SHT30;60894;42.544;1.516;2022-11-20T12:32:34;14.61;33.44
72772;SHT30;60894;42.544;1.516;2022-11-20T12:35:16;14.37;33.60
72772;SHT30;60894;42.544;1.516;2022-11-20T12:37:48;14.10;33.65
72772;SHT30;60894;42.544;1.516;2022-11-20T12:40:28;13.97;34.73
72772;SHT30;60894;42.544;1.516;2022-11-20T12:43:11;13.73;35.72
72772;SHT30;60894;42.544;1.516;2022-11-20T12:46:15;13.54;36.72
72772;SHT30;60894;42.544;1.516;2022-11-20T12:48:57;13.76;36.80
72772;SHT30;60894;42.544;1.516;2022-11-20T12:54:39;13.91;37.14
72772;SHT30;60894;42.544;1.516;2022-11-20T12:57:15;13.86;37.87
72772;SHT30;60894;42.544;1.516;2022-11-20T12:59:59;14.16;37.64
72772;SHT30;60894;42.544;1.516;2022-11-20T13:02:34;13.59;38.45
72772;SHT30;60894;42.544;1.516;2022-11-20T13:05:24;13.44;38.93
72772;SHT30;60894;42.544;1.516;2022-11-20T13:07:54;13.48;37.97
72772;SHT30;60894;42.544;1.516;2022-11-20T13:10:29;13.54;38.07
72772;SHT30;60894;42.544;1.516;2022-11-20T13:13:01;13.56;37.92
72772;SHT30;60894;42.544;1.516;2022-11-20T13:15:42;13.51;38.47
72772;SHT30;60894;42.544;1.516;2022-11-20T13:18:12;13.38;39.53
72772;SHT30;60894;42.544;1.516;2022-11-20T13:20:44;13.03;40.15
72772;SHT30;60894;42.544;1.516;2022-11-20T13:23:23;13.05;40.71
72772;SHT30;60894;42.544;1.516;2022-11-20T13:25:50;13.01;40.97
72772;SHT30;60894;42.544;1.516;2022-11-20T13:28:27;12.88;41.19
72772;SHT30;60894;42.544;1.516;2022-11-20T13:30:57;12.80;41.82
72772;SHT30;60894;42.544;1.516;2022-11-20T13:33:28;12.74;41.64
72772;SHT30;60894;42.544;1.516;2022-11-20T13:35:58;12.72;42.23
72772;SHT30;60894;42.544;1.516;2022-11-20T13:38:25;12.67;42.98
72772;SHT30;60894;42.544;1.516;2022-11-20T13:40:54;12.37;43.48
72772;SHT30;60894;42.544;1.516;2022-11-20T13:43:26;12.30;43.86
72772;SHT30;60894;42.544;1.516;2022-11-20T13:45:58;12.32;44.24
72772;SHT30;60894;42.544;1.516;2022-11-20T13:48:30;12.36;44.21
72772;SHT30;60894;42.544;1.516;2022-11-20T13:51:15;12.50;43.73
72772;SHT30;60894;42.544;1.516;2022-11-20T13:54:05;12.46;43.70
72772;SHT30;60894;42.544;1.516;2022-11-20T13:56:47;12.59;43.55
72772;SHT30;60894;42.544;1.516;2022-11-20T13:59:28;12.37;43.70
72772;SHT30;60894;42.544;1.516;2022-11-20T14:02:01;12.49;43.66
72772;SHT30;60894;42.544;1.516;2022-11-20T14:04:33;12.53;43.50
72772;SHT30;60894;42.544;1.516;2022-11-20T14:07:00;12.73;43.14
72772;SHT30;60894;42.544;1.516;2022-11-20T14:09:29;13.12;42.73
72772;SHT30;60894;42.544;1.516;2022-11-20T14:11:57;13.45;41.74
72772;SHT30;60894;42.544;1.516;2022-11-20T14:14:25;14.06;40.67
72772;SHT30;60894;42.544;1.516;2022-11-20T14:17:03;14.67;38.89
72772;SHT30;60894;42.544;1.516;2022-11-20T14:19:33;14.98;38.36
72772;SHT30;60894;42.544;1.516;2022-11-20T14:22:18;14.86;38.57
72772;SHT30;60894;42.544;1.516;2022-11-20T14:24:45;14.82;38.98
72772;SHT30;60894;42.544;1.516;2022-11-20T14:27:14;13.79;41.45
72772;SHT30;60894;42.544;1.516;2022-11-20T14:29:43;13.03;42.90
72772;SHT30;60894;42.544;1.516;2022-11-20T14:32:11;12.67;43.92
72772;SHT30;60894;42.544;1.516;2022-11-20T14:34:44;12.21;45.79
72772;SHT30;60894;42.544;1.516;2022-11-20T14:37:13;11.31;46.23
72772;SHT30;60894;42.544;1.516;2022-11-20T14:39:49;10.92;46.79
72772;SHT30;60894;42.544;1.516;2022-11-20T14:42:19;11.02;46.04
72772;SHT30;60894;42.544;1.516;2022-11-20T14:44:47;10.89;46.74
72772;SHT30;60894;42.544;1.516;2022-11-20T14:47:18;10.52;48.36
72772;SHT30;60894;42.544;1.516;2022-11-20T14:49:48;10.59;48.12
72772;SHT30;60894;42.544;1.516;2022-11-20T14:52:17;10.75;46.72
72772;SHT30;60894;42.544;1.516;2022-11-20T14:54:46;10.28;45.16
72772;SHT30;60894;42.544;1.516;2022-11-20T14:57:25;10.20;45.98
72772;SHT30;60894;42.544;1.516;2022-11-20T15:00:05;10.30;43.16
72772;SHT30;60894;42.544;1.516;2022-11-20T15:02:32;10.32;41.99
72772;SHT30;60894;42.544;1.516;2022-11-20T15:05:01;10.20;43.32
72772;SHT30;60894;42.544;1.516;2022-11-20T15:07:31;10.34;39.81
72772;SHT30;60894;42.544;1.516;2022-11-20T15:10:05;10.61;35.40
72772;SHT30;60894;42.544;1.516;2022-11-20T15:12:34;10.65;37.76
72772;SHT30;60894;42.544;1.516;2022-11-20T15:15:02;10.62;36.18
72772;SHT30;60894;42.544;1.516;2022-11-20T15:17:30;10.69;34.56
72772;SHT30;60894;42.544;1.516;2022-11-20T15:20:00;10.71;32.80
72772;SHT30;60894;42.544;1.516;2022-11-20T15:22:28;10.71;33.82
72772;SHT30;60894;42.544;1.516;2022-11-20T15:24:55;10.76;33.11
72772;SHT30;60894;42.544;1.516;2022-11-20T15:27:23;10.72;33.10
72772;SHT30;60894;42.544;1.516;2022-11-20T15:29:50;10.71;33.72
72772;SHT30;60894;42.544;1.516;2022-11-20T15:32:17;10.59;34.84
72772;SHT30;60894;42.544;1.516;2022-11-20T15:34:43;10.62;35.46
72772;SHT30;60894;42.544;1.516;2022-11-20T15:37:12;10.37;35.56
72772;SHT30;60894;42.544;1.516;2022-11-20T15:39:39;10.28;36.19
72772;SHT30;60894;42.544;1.516;2022-11-20T15:42:06;10.01;37.39
72772;SHT30;60894;42.544;1.516;2022-11-20T15:44:33;9.90;42.88
72772;SHT30;60894;42.544;1.516;2022-11-20T15:47:00;9.77;43.57
72772;SHT30;60894;42.544;1.516;2022-11-20T15:49:29;9.82;44.44
72772;SHT30;60894;42.544;1.516;2022-11-20T15:51:56;9.74;43.12
72772;SHT30;60894;42.544;1.516;2022-11-20T15:54:25;9.79;36.65
72772;SHT30;60894;42.544;1.516;2022-11-20T15:56:52;9.80;37.53
72772;SHT30;60894;42.544;1.516;2022-11-20T15:59:19;9.73;38.43
72772;SHT30;60894;42.544;1.516;2022-11-20T16:01:46;9.60;43.90
72772;SHT30;60894;42.544;1.516;2022-11-20T16:04:15;9.53;42.44
72772;SHT30;60894;42.544;1.516;2022-11-20T16:06:42;9.46;42.22